sensor_id;sensor_type;location;lat;lon;timestamp;P1;durP1;ratioP1;P2;durP2;ratioP2
60372;SDS011;46216;52.220;5.134;2023-03-02T00:00:35;40.20;;;24.73;;
60372;SDS011;46216;52.220;5.134;2023-03-02T00:03:01;40.72;;;25.10;;
60372;SDS011;46216;52.220;5.134;2023-03-02T00:05:28;41.63;;;25.90;;
60372;SDS011;46216;52.220;5.134;2023-03-02T00:07:55;44.10;;;25.75;;
60372;SDS011;46216;52.220;5.134;2023-03-02T00:10:22;40.58;;;25.45;;
60372;SDS011;46216;52.220;5.134;2023-03-02T00:12:47;47.00;;;28.05;;
60372;SDS011;46216;52.220;5.134;2023-03-02T00:15:13;43.65;;;26.02;;
60372;SDS011;46216;52.220;5.134;2023-03-02T00:17:38;45.95;;;27.73;;
60372;SDS011;46216;52.220;5.134;2023-03-02T00:20:04;42.75;;;25.33;;
60372;SDS011;46216;52.220;5.134;2023-03-02T00:22:40;44.72;;;25.83;;
60372;SDS011;46216;52.220;5.134;2023-03-02T00:25:07;44.30;;;26.20;;
60372;SDS011;46216;52.220;5.134;2023-03-02T00:27:33;44.38;;;26.90;;
60372;SDS011;46216;52.220;5.134;2023-03-02T00:29:59;47.25;;;26.48;;
60372;SDS011;46216;52.220;5.134;2023-03-02T00:32:24;42.97;;;25.77;;
60372;SDS011;46216;52.220;5.134;2023-03-02T00:34:50;50.47;;;27.25;;
60372;SDS011;46216;52.220;5.134;2023-03-02T00:37:15;42.05;;;24.63;;
60372;SDS011;46216;52.220;5.134;2023-03-02T00:39:41;49.05;;;26.17;;
60372;SDS011;46216;52.220;5.134;2023-03-02T00:42:06;44.40;;;22.33;;
60372;SDS011;46216;52.220;5.134;2023-03-02T00:44:31;44.92;;;24.42;;
60372;SDS011;46216;52.220;5.134;2023-03-02T00:46:57;50.17;;;27.33;;
60372;SDS011;46216;52.220;5.134;2023-03-02T00:49:22;49.88;;;27.73;;
60372;SDS011;46216;52.220;5.134;2023-03-02T00:51:47;50.25;;;28.05;;
60372;SDS011;46216;52.220;5.134;2023-03-02T00:54:13;48.95;;;27.58;;
60372;SDS011;46216;52.220;5.134;2023-03-02T00:56:38;49.03;;;27.35;;
60372;SDS011;46216;52.220;5.134;2023-03-02T00:59:08;49.08;;;27.38;;
60372;SDS011;46216;52.220;5.134;2023-03-02T01:01:50;48.42;;;25.88;;
60372;SDS011;46216;52.220;5.134;2023-03-02T01:04:26;50.08;;;27.35;;
60372;SDS011;46216;52.220;5.134;2023-03-02T01:06:55;47.88;;;26.80;;
60372;SDS011;46216;52.220;5.134;2023-03-02T01:09:22;47.45;;;26.38;;
60372;SDS011;46216;52.220;5.134;2023-03-02T01:11:48;49.30;;;27.30;;
60372;SDS011;46216;52.220;5.134;2023-03-02T01:14:13;49.15;;;26.48;;
60372;SDS011;46216;52.220;5.134;2023-03-02T01:16:39;54.53;;;28.25;;
60372;SDS011;46216;52.220;5.134;2023-03-02T01:19:04;53.28;;;26.70;;
60372;SDS011;46216;52.220;5.134;2023-03-02T01:21:30;50.70;;;27.10;;
60372;SDS011;46216;52.220;5.134;2023-03-02T01:23:55;50.58;;;27.67;;
60372;SDS011;46216;52.220;5.134;2023-03-02T01:26:21;50.60;;;27.42;;
60372;SDS011;46216;52.220;5.134;2023-03-02T01:28:46;48.75;;;27.25;;
60372;SDS011;46216;52.220;5.134;2023-03-02T01:31:11;50.88;;;27.33;;
60372;SDS011;46216;52.220;5.134;2023-03-02T01:33:37;49.55;;;26.33;;
60372;SDS011;46216;52.220;5.134;2023-03-02T01:36:02;48.15;;;27.10;;
60372;SDS011;46216;52.220;5.134;2023-03-02T01:38:28;52.97;;;28.55;;
60372;SDS011;46216;52.220;5.134;2023-03-02T01:40:53;53.22;;;28.52;;
60372;SDS011;46216;52.220;5.134;2023-03-02T01:43:19;53.70;;;28.92;;
60372;SDS011;46216;52.220;5.134;2023-03-02T01:48:16;50.10;;;27.58;;
60372;SDS011;46216;52.220;5.134;2023-03-02T01:50:45;50.50;;;27.42;;
60372;SDS011;46216;52.220;5.134;2023-03-02T01:53:12;50.10;;;26.90;;
60372;SDS011;46216;52.220;5.134;2023-03-02T01:55:39;48.47;;;26.33;;
60372;SDS011;46216;52.220;5.134;2023-03-02T01:58:05;47.47;;;26.58;;
60372;SDS011;46216;52.220;5.134;2023-03-02T02:00:33;47.33;;;26.50;;
60372;SDS011;46216;52.220;5.134;2023-03-02T02:03:03;54.33;;;27.45;;
60372;SDS011;46216;52.220;5.134;2023-03-02T02:05:33;49.22;;;26.42;;
60372;SDS011;46216;52.220;5.134;2023-03-02T02:08:04;49.28;;;26.60;;
60372;SDS011;46216;52.220;5.134;2023-03-02T02:10:31;46.00;;;26.65;;
60372;SDS011;46216;52.220;5.134;2023-03-02T02:12:57;51.78;;;26.73;;
60372;SDS011;46216;52.220;5.134;2023-03-02T02:15:23;50.38;;;27.05;;
60372;SDS011;46216;52.220;5.134;2023-03-02T02:17:49;51.20;;;27.30;;
60372;SDS011;46216;52.220;5.134;2023-03-02T02:20:29;48.72;;;27.17;;
60372;SDS011;46216;52.220;5.134;2023-03-02T02:31:08;52.22;;;27.13;;
60372;SDS011;46216;52.220;5.134;2023-03-02T02:33:43;47.78;;;26.17;;
60372;SDS011;46216;52.220;5.134;2023-03-02T02:36:15;52.95;;;27.48;;
60372;SDS011;46216;52.220;5.134;2023-03-02T02:38:46;50.03;;;25.97;;
60372;SDS011;46216;52.220;5.134;2023-03-02T02:41:19;48.70;;;25.77;;
60372;SDS011;46216;52.220;5.134;2023-03-02T02:43:48;47.92;;;25.58;;
60372;SDS011;46216;52.220;5.134;2023-03-02T02:46:14;45.42;;;24.67;;
60372;SDS011;46216;52.220;5.134;2023-03-02T02:48:40;51.97;;;26.63;;
60372;SDS011;46216;52.220;5.134;2023-03-02T02:51:06;45.70;;;25.15;;
60372;SDS011;46216;52.220;5.134;2023-03-02T02:56:22;47.50;;;25.40;;
60372;SDS011;46216;52.220;5.134;2023-03-02T02:58:50;46.00;;;24.63;;
60372;SDS011;46216;52.220;5.134;2023-03-02T03:01:19;49.15;;;26.58;;
60372;SDS011;46216;52.220;5.134;2023-03-02T03:03:54;48.83;;;26.40;;
60372;SDS011;46216;52.220;5.134;2023-03-02T03:06:23;50.27;;;25.90;;
60372;SDS011;46216;52.220;5.134;2023-03-02T03:09:02;49.90;;;25.48;;
60372;SDS011;46216;52.220;5.134;2023-03-02T03:11:29;47.07;;;24.93;;
60372;SDS011;46216;52.220;5.134;2023-03-02T03:14:02;48.97;;;25.52;;
60372;SDS011;46216;52.220;5.134;2023-03-02T03:16:33;46.90;;;25.27;;
60372;SDS011;46216;52.220;5.134;2023-03-02T03:19:03;51.13;;;25.23;;
60372;SDS011;46216;52.220;5.134;2023-03-02T03:21:32;46.20;;;24.50;;
60372;SDS011;46216;52.220;5.134;2023-03-02T03:23:57;45.20;;;24.70;;
60372;SDS011;46216;52.220;5.134;2023-03-02T03:26:23;44.60;;;24.35;;
60372;SDS011;46216;52.220;5.134;2023-03-02T03:28:48;47.00;;;25.00;;
60372;SDS011;46216;52.220;5.134;2023-03-02T03:31:13;45.08;;;24.00;;
60372;SDS011;46216;52.220;5.134;2023-03-02T03:33:39;46.83;;;24.60;;
60372;SDS011;46216;52.220;5.134;2023-03-02T03:36:05;45.17;;;22.87;;
60372;SDS011;46216;52.220;5.134;2023-03-02T03:38:30;44.95;;;23.83;;
60372;SDS011;46216;52.220;5.134;2023-03-02T03:40:55;47.97;;;24.33;;
60372;SDS011;46216;52.220;5.134;2023-03-02T03:43:24;45.80;;;24.73;;
60372;SDS011;46216;52.220;5.134;2023-03-02T03:45:49;48.10;;;24.30;;
60372;SDS011;46216;52.220;5.134;2023-03-02T03:48:16;43.95;;;23.77;;
60372;SDS011;46216;52.220;5.134;2023-03-02T03:50:42;46.20;;;24.42;;
60372;SDS011;46216;52.220;5.134;2023-03-02T03:53:08;41.75;;;22.88;;
60372;SDS011;46216;52.220;5.134;2023-03-02T03:55:33;46.90;;;23.37;;
60372;SDS011;46216;52.220;5.134;2023-03-02T03:57:58;43.67;;;22.03;;
60372;SDS011;46216;52.220;5.134;2023-03-02T04:00:24;46.27;;;23.33;;
60372;SDS011;46216;52.220;5.134;2023-03-02T04:02:49;49.33;;;25.13;;
60372;SDS011;46216;52.220;5.134;2023-03-02T04:05:15;44.33;;;23.43;;
60372;SDS011;46216;52.220;5.134;2023-03-02T04:07:41;45.33;;;23.20;;
60372;SDS011;46216;52.220;5.134;2023-03-02T04:10:06;42.00;;;22.70;;
60372;SDS011;46216;52.220;5.134;2023-03-02T04:12:33;43.92;;;22.58;;
60372;SDS011;46216;52.220;5.134;2023-03-02T04:15:00;41.10;;;21.93;;
60372;SDS011;46216;52.220;5.134;2023-03-02T04:17:27;42.25;;;21.20;;
60372;SDS011;46216;52.220;5.134;2023-03-02T04:19:52;42.97;;;22.27;;
60372;SDS011;46216;52.220;5.134;2023-03-02T04:22:18;43.87;;;21.67;;
60372;SDS011;46216;52.220;5.134;2023-03-02T04:24:44;42.42;;;23.13;;
60372;SDS011;46216;52.220;5.134;2023-03-02T04:27:11;44.27;;;21.80;;
60372;SDS011;46216;52.220;5.134;2023-03-02T04:29:37;44.78;;;22.20;;
60372;SDS011;46216;52.220;5.134;2023-03-02T04:32:03;44.97;;;22.73;;
60372;SDS011;46216;52.220;5.134;2023-03-02T04:34:28;43.97;;;23.17;;
60372;SDS011;46216;52.220;5.134;2023-03-02T04:36:54;39.67;;;21.55;;
60372;SDS011;46216;52.220;5.134;2023-03-02T04:39:19;42.30;;;22.17;;
60372;SDS011;46216;52.220;5.134;2023-03-02T04:41:45;39.97;;;22.43;;
60372;SDS011;46216;52.220;5.134;2023-03-02T04:44:11;44.60;;;22.90;;
60372;SDS011;46216;52.220;5.134;2023-03-02T04:46:38;42.63;;;22.97;;
60372;SDS011;46216;52.220;5.134;2023-03-02T04:49:04;42.00;;;22.10;;
60372;SDS011;46216;52.220;5.134;2023-03-02T04:51:31;43.03;;;22.23;;
60372;SDS011;46216;52.220;5.134;2023-03-02T04:53:59;45.47;;;22.07;;
60372;SDS011;46216;52.220;5.134;2023-03-02T04:56:28;42.47;;;21.83;;
60372;SDS011;46216;52.220;5.134;2023-03-02T04:58:54;48.77;;;24.07;;
60372;SDS011;46216;52.220;5.134;2023-03-02T05:01:20;45.43;;;23.20;;
60372;SDS011;46216;52.220;5.134;2023-03-02T05:03:46;48.93;;;23.10;;
60372;SDS011;46216;52.220;5.134;2023-03-02T05:06:13;41.87;;;22.57;;
60372;SDS011;46216;52.220;5.134;2023-03-02T05:08:38;43.10;;;23.17;;
60372;SDS011;46216;52.220;5.134;2023-03-02T05:11:05;45.87;;;22.80;;
60372;SDS011;46216;52.220;5.134;2023-03-02T05:13:32;46.97;;;22.60;;
60372;SDS011;46216;52.220;5.134;2023-03-02T05:15:57;47.97;;;23.77;;
60372;SDS011;46216;52.220;5.134;2023-03-02T05:18:23;47.60;;;23.90;;
60372;SDS011;46216;52.220;5.134;2023-03-02T05:20:49;46.27;;;23.37;;
60372;SDS011;46216;52.220;5.134;2023-03-02T05:23:15;49.87;;;23.13;;
60372;SDS011;46216;52.220;5.134;2023-03-02T05:25:48;47.53;;;22.63;;
60372;SDS011;46216;52.220;5.134;2023-03-02T05:28:14;46.17;;;23.23;;
60372;SDS011;46216;52.220;5.134;2023-03-02T05:30:40;45.00;;;22.90;;
60372;SDS011;46216;52.220;5.134;2023-03-02T05:33:06;46.87;;;23.63;;
60372;SDS011;46216;52.220;5.134;2023-03-02T05:35:32;48.13;;;23.00;;
60372;SDS011;46216;52.220;5.134;2023-03-02T05:37:57;48.97;;;23.53;;
60372;SDS011;46216;52.220;5.134;2023-03-02T05:40:23;47.22;;;23.38;;
60372;SDS011;46216;52.220;5.134;2023-03-02T05:42:48;47.88;;;23.42;;
60372;SDS011;46216;52.220;5.134;2023-03-02T05:45:22;45.37;;;22.80;;
60372;SDS011;46216;52.220;5.134;2023-03-02T05:47:49;47.33;;;23.33;;
60372;SDS011;46216;52.220;5.134;2023-03-02T05:50:15;47.67;;;22.87;;
60372;SDS011;46216;52.220;5.134;2023-03-02T05:52:41;48.80;;;23.07;;
60372;SDS011;46216;52.220;5.134;2023-03-02T05:55:06;45.97;;;21.93;;
60372;SDS011;46216;52.220;5.134;2023-03-02T05:57:32;50.00;;;23.60;;
60372;SDS011;46216;52.220;5.134;2023-03-02T05:59:58;44.77;;;22.40;;
60372;SDS011;46216;52.220;5.134;2023-03-02T06:02:24;47.83;;;23.63;;
60372;SDS011;46216;52.220;5.134;2023-03-02T06:04:49;46.53;;;22.33;;
60372;SDS011;46216;52.220;5.134;2023-03-02T06:07:14;43.57;;;22.27;;
60372;SDS011;46216;52.220;5.134;2023-03-02T06:09:40;47.70;;;22.47;;
60372;SDS011;46216;52.220;5.134;2023-03-02T06:12:06;49.30;;;23.13;;
60372;SDS011;46216;52.220;5.134;2023-03-02T06:14:32;47.77;;;23.07;;
60372;SDS011;46216;52.220;5.134;2023-03-02T06:16:59;48.17;;;23.43;;
60372;SDS011;46216;52.220;5.134;2023-03-02T06:19:24;49.53;;;23.17;;
60372;SDS011;46216;52.220;5.134;2023-03-02T06:21:49;52.60;;;23.97;;
60372;SDS011;46216;52.220;5.134;2023-03-02T06:24:15;49.23;;;23.07;;
60372;SDS011;46216;52.220;5.134;2023-03-02T06:26:40;51.40;;;23.97;;
60372;SDS011;46216;52.220;5.134;2023-03-02T06:29:06;49.00;;;23.43;;
60372;SDS011;46216;52.220;5.134;2023-03-02T06:31:31;58.03;;;24.50;;
60372;SDS011;46216;52.220;5.134;2023-03-02T06:33:57;48.33;;;22.50;;
60372;SDS011;46216;52.220;5.134;2023-03-02T06:36:23;50.53;;;23.60;;
60372;SDS011;46216;52.220;5.134;2023-03-02T06:38:48;55.53;;;24.10;;
60372;SDS011;46216;52.220;5.134;2023-03-02T06:41:14;53.03;;;23.47;;
60372;SDS011;46216;52.220;5.134;2023-03-02T06:43:39;50.57;;;23.73;;
60372;SDS011;46216;52.220;5.134;2023-03-02T06:46:05;47.93;;;23.60;;
60372;SDS011;46216;52.220;5.134;2023-03-02T06:48:31;51.13;;;23.93;;
60372;SDS011;46216;52.220;5.134;2023-03-02T06:50:56;50.40;;;23.47;;
60372;SDS011;46216;52.220;5.134;2023-03-02T06:53:21;52.23;;;24.23;;
60372;SDS011;46216;52.220;5.134;2023-03-02T06:55:48;52.17;;;24.70;;
60372;SDS011;46216;52.220;5.134;2023-03-02T06:58:14;49.17;;;23.30;;
60372;SDS011;46216;52.220;5.134;2023-03-02T07:00:40;48.63;;;23.97;;
60372;SDS011;46216;52.220;5.134;2023-03-02T07:03:06;52.60;;;23.93;;
60372;SDS011;46216;52.220;5.134;2023-03-02T07:05:31;54.97;;;24.90;;
60372;SDS011;46216;52.220;5.134;2023-03-02T07:07:57;49.83;;;24.73;;
60372;SDS011;46216;52.220;5.134;2023-03-02T07:10:23;52.17;;;23.23;;
60372;SDS011;46216;52.220;5.134;2023-03-02T07:12:48;52.87;;;23.83;;
60372;SDS011;46216;52.220;5.134;2023-03-02T07:15:14;58.13;;;25.30;;
60372;SDS011;46216;52.220;5.134;2023-03-02T07:17:40;53.90;;;24.83;;
60372;SDS011;46216;52.220;5.134;2023-03-02T07:20:07;56.40;;;24.87;;
60372;SDS011;46216;52.220;5.134;2023-03-02T07:22:33;52.43;;;24.47;;
60372;SDS011;46216;52.220;5.134;2023-03-02T07:24:58;48.00;;;24.03;;
60372;SDS011;46216;52.220;5.134;2023-03-02T07:27:23;44.27;;;20.70;;
60372;SDS011;46216;52.220;5.134;2023-03-02T07:29:49;43.27;;;20.37;;
60372;SDS011;46216;52.220;5.134;2023-03-02T07:32:14;52.30;;;23.40;;
60372;SDS011;46216;52.220;5.134;2023-03-02T07:34:40;50.77;;;23.77;;
60372;SDS011;46216;52.220;5.134;2023-03-02T07:37:05;42.03;;;20.23;;
60372;SDS011;46216;52.220;5.134;2023-03-02T07:39:30;42.07;;;21.90;;
60372;SDS011;46216;52.220;5.134;2023-03-02T07:41:56;44.10;;;22.50;;
60372;SDS011;46216;52.220;5.134;2023-03-02T07:44:23;42.78;;;21.38;;
60372;SDS011;46216;52.220;5.134;2023-03-02T07:46:48;41.35;;;21.17;;
60372;SDS011;46216;52.220;5.134;2023-03-02T07:49:14;44.57;;;22.50;;
60372;SDS011;46216;52.220;5.134;2023-03-02T07:51:39;43.23;;;21.60;;
60372;SDS011;46216;52.220;5.134;2023-03-02T07:54:04;40.97;;;21.77;;
60372;SDS011;46216;52.220;5.134;2023-03-02T07:56:30;38.33;;;19.15;;
60372;SDS011;46216;52.220;5.134;2023-03-02T07:58:55;40.33;;;22.27;;
60372;SDS011;46216;52.220;5.134;2023-03-02T08:01:20;40.77;;;20.60;;
60372;SDS011;46216;52.220;5.134;2023-03-02T08:03:46;44.40;;;21.87;;
60372;SDS011;46216;52.220;5.134;2023-03-02T08:06:11;39.40;;;20.90;;
60372;SDS011;46216;52.220;5.134;2023-03-02T08:08:36;40.87;;;21.70;;
60372;SDS011;46216;52.220;5.134;2023-03-02T08:11:03;41.13;;;21.77;;
60372;SDS011;46216;52.220;5.134;2023-03-02T08:13:29;40.47;;;20.10;;
60372;SDS011;46216;52.220;5.134;2023-03-02T08:15:58;34.77;;;19.70;;
60372;SDS011;46216;52.220;5.134;2023-03-02T08:18:25;39.07;;;19.57;;
60372;SDS011;46216;52.220;5.134;2023-03-02T08:20:50;37.92;;;20.70;;
60372;SDS011;46216;52.220;5.134;2023-03-02T08:23:17;36.08;;;19.33;;
60372;SDS011;46216;52.220;5.134;2023-03-02T08:25:43;31.98;;;18.38;;
60372;SDS011;46216;52.220;5.134;2023-03-02T08:28:08;33.87;;;18.40;;
60372;SDS011;46216;52.220;5.134;2023-03-02T08:30:33;31.40;;;17.55;;
60372;SDS011;46216;52.220;5.134;2023-03-02T08:32:59;31.25;;;17.33;;
60372;SDS011;46216;52.220;5.134;2023-03-02T08:35:24;27.13;;;15.68;;
60372;SDS011;46216;52.220;5.134;2023-03-02T08:37:49;30.42;;;17.15;;
60372;SDS011;46216;52.220;5.134;2023-03-02T08:40:15;27.23;;;16.02;;
60372;SDS011;46216;52.220;5.134;2023-03-02T08:42:40;28.35;;;16.83;;
60372;SDS011;46216;52.220;5.134;2023-03-02T08:45:05;27.27;;;16.08;;
60372;SDS011;46216;52.220;5.134;2023-03-02T08:47:31;26.98;;;16.27;;
60372;SDS011;46216;52.220;5.134;2023-03-02T08:49:56;26.20;;;14.52;;
60372;SDS011;46216;52.220;5.134;2023-03-02T08:52:22;27.42;;;15.43;;
60372;SDS011;46216;52.220;5.134;2023-03-02T08:54:47;28.52;;;16.40;;
60372;SDS011;46216;52.220;5.134;2023-03-02T08:57:13;28.13;;;15.50;;
60372;SDS011;46216;52.220;5.134;2023-03-02T08:59:38;26.55;;;16.25;;
60372;SDS011;46216;52.220;5.134;2023-03-02T09:02:04;28.27;;;16.00;;
60372;SDS011;46216;52.220;5.134;2023-03-02T09:04:29;24.40;;;14.02;;
60372;SDS011;46216;52.220;5.134;2023-03-02T09:06:55;27.85;;;15.73;;
60372;SDS011;46216;52.220;5.134;2023-03-02T09:09:20;26.52;;;16.30;;
60372;SDS011;46216;52.220;5.134;2023-03-02T09:11:45;26.40;;;14.98;;
60372;SDS011;46216;52.220;5.134;2023-03-02T09:14:11;28.92;;;16.23;;
60372;SDS011;46216;52.220;5.134;2023-03-02T09:16:37;26.05;;;16.70;;
60372;SDS011;46216;52.220;5.134;2023-03-02T09:19:03;26.00;;;15.60;;
60372;SDS011;46216;52.220;5.134;2023-03-02T09:21:28;26.52;;;15.63;;
60372;SDS011;46216;52.220;5.134;2023-03-02T09:23:53;26.08;;;16.02;;
60372;SDS011;46216;52.220;5.134;2023-03-02T09:26:22;25.48;;;15.50;;
60372;SDS011;46216;52.220;5.134;2023-03-02T09:28:48;26.80;;;15.82;;
60372;SDS011;46216;52.220;5.134;2023-03-02T09:31:13;27.48;;;16.27;;
60372;SDS011;46216;52.220;5.134;2023-03-02T09:33:38;26.95;;;17.00;;
60372;SDS011;46216;52.220;5.134;2023-03-02T09:36:07;24.60;;;15.63;;
60372;SDS011;46216;52.220;5.134;2023-03-02T09:38:35;29.67;;;16.48;;
60372;SDS011;46216;52.220;5.134;2023-03-02T09:51:27;27.13;;;15.90;;
60372;SDS011;46216;52.220;5.134;2023-03-02T09:56:34;24.77;;;14.90;;
60372;SDS011;46216;52.220;5.134;2023-03-02T09:59:04;24.45;;;15.13;;
60372;SDS011;46216;52.220;5.134;2023-03-02T10:01:39;22.08;;;13.77;;
60372;SDS011;46216;52.220;5.134;2023-03-02T10:04:17;24.20;;;15.18;;
60372;SDS011;46216;52.220;5.134;2023-03-02T10:06:46;32.40;;;15.75;;
60372;SDS011;46216;52.220;5.134;2023-03-02T10:09:12;23.02;;;14.90;;
60372;SDS011;46216;52.220;5.134;2023-03-02T10:11:45;21.75;;;13.00;;
60372;SDS011;46216;52.220;5.134;2023-03-02T10:14:23;25.25;;;15.63;;
60372;SDS011;46216;52.220;5.134;2023-03-02T10:17:12;25.63;;;15.65;;
60372;SDS011;46216;52.220;5.134;2023-03-02T10:19:59;25.80;;;15.80;;
60372;SDS011;46216;52.220;5.134;2023-03-02T10:22:29;23.77;;;15.20;;
60372;SDS011;46216;52.220;5.134;2023-03-02T10:27:46;22.10;;;14.15;;
60372;SDS011;46216;52.220;5.134;2023-03-02T10:30:21;21.15;;;14.75;;
60372;SDS011;46216;52.220;5.134;2023-03-02T10:32:52;22.20;;;13.98;;
60372;SDS011;46216;52.220;5.134;2023-03-02T10:35:24;21.98;;;14.40;;
60372;SDS011;46216;52.220;5.134;2023-03-02T10:38:13;25.13;;;14.40;;
60372;SDS011;46216;52.220;5.134;2023-03-02T10:40:44;23.15;;;14.18;;
60372;SDS011;46216;52.220;5.134;2023-03-02T10:43:16;23.13;;;14.07;;
60372;SDS011;46216;52.220;5.134;2023-03-02T10:45:44;21.33;;;13.90;;
60372;SDS011;46216;52.220;5.134;2023-03-02T10:48:12;22.23;;;14.10;;
60372;SDS011;46216;52.220;5.134;2023-03-02T10:50:38;22.38;;;14.30;;
60372;SDS011;46216;52.220;5.134;2023-03-02T10:53:06;20.88;;;14.68;;
60372;SDS011;46216;52.220;5.134;2023-03-02T10:55:33;21.30;;;14.05;;
60372;SDS011;46216;52.220;5.134;2023-03-02T11:00:28;22.20;;;14.30;;
60372;SDS011;46216;52.220;5.134;2023-03-02T11:02:56;23.23;;;14.88;;
60372;SDS011;46216;52.220;5.134;2023-03-02T11:05:27;21.95;;;14.30;;
60372;SDS011;46216;52.220;5.134;2023-03-02T11:07:58;24.00;;;14.50;;
60372;SDS011;46216;52.220;5.134;2023-03-02T11:10:31;21.13;;;13.82;;
60372;SDS011;46216;52.220;5.134;2023-03-02T11:12:58;21.73;;;13.93;;
60372;SDS011;46216;52.220;5.134;2023-03-02T11:15:26;18.80;;;12.50;;
60372;SDS011;46216;52.220;5.134;2023-03-02T11:18:00;20.38;;;12.90;;
60372;SDS011;46216;52.220;5.134;2023-03-02T11:20:40;19.42;;;11.65;;
60372;SDS011;46216;52.220;5.134;2023-03-02T11:25:37;20.65;;;12.50;;
60372;SDS011;46216;52.220;5.134;2023-03-02T11:28:08;19.45;;;13.50;;
60372;SDS011;46216;52.220;5.134;2023-03-02T11:30:44;19.90;;;12.07;;
60372;SDS011;46216;52.220;5.134;2023-03-02T11:33:29;21.48;;;13.52;;
60372;SDS011;46216;52.220;5.134;2023-03-02T11:36:03;20.60;;;13.95;;
60372;SDS011;46216;52.220;5.134;2023-03-02T11:38:40;20.40;;;13.48;;
60372;SDS011;46216;52.220;5.134;2023-03-02T11:43:59;19.02;;;13.65;;
60372;SDS011;46216;52.220;5.134;2023-03-02T11:46:31;20.27;;;14.35;;
60372;SDS011;46216;52.220;5.134;2023-03-02T11:49:02;21.33;;;14.45;;
60372;SDS011;46216;52.220;5.134;2023-03-02T11:51:35;22.35;;;14.32;;
60372;SDS011;46216;52.220;5.134;2023-03-02T11:54:13;20.33;;;14.07;;
60372;SDS011;46216;52.220;5.134;2023-03-02T11:56:47;21.23;;;13.32;;
60372;SDS011;46216;52.220;5.134;2023-03-02T11:59:14;20.80;;;14.38;;
60372;SDS011;46216;52.220;5.134;2023-03-02T12:01:44;20.58;;;13.32;;
60372;SDS011;46216;52.220;5.134;2023-03-02T12:04:25;20.98;;;13.63;;
60372;SDS011;46216;52.220;5.134;2023-03-02T12:07:02;20.65;;;13.20;;
60372;SDS011;46216;52.220;5.134;2023-03-02T12:09:40;20.30;;;13.63;;
60372;SDS011;46216;52.220;5.134;2023-03-02T12:12:24;19.73;;;14.05;;
60372;SDS011;46216;52.220;5.134;2023-03-02T12:14:58;18.73;;;12.90;;
60372;SDS011;46216;52.220;5.134;2023-03-02T12:19:49;19.17;;;13.40;;
60372;SDS011;46216;52.220;5.134;2023-03-02T12:22:27;20.67;;;14.13;;
60372;SDS011;46216;52.220;5.134;2023-03-02T12:25:00;17.55;;;13.07;;
60372;SDS011;46216;52.220;5.134;2023-03-02T12:27:34;22.17;;;14.25;;
60372;SDS011;46216;52.220;5.134;2023-03-02T12:32:34;17.95;;;12.80;;
60372;SDS011;46216;52.220;5.134;2023-03-02T12:37:32;16.65;;;11.48;;
60372;SDS011;46216;52.220;5.134;2023-03-02T12:48:03;19.02;;;13.60;;
60372;SDS011;46216;52.220;5.134;2023-03-02T12:50:43;21.02;;;13.45;;
60372;SDS011;46216;52.220;5.134;2023-03-02T12:53:16;21.98;;;13.38;;
60372;SDS011;46216;52.220;5.134;2023-03-02T12:55:43;19.27;;;13.80;;
60372;SDS011;46216;52.220;5.134;2023-03-02T12:58:17;18.73;;;13.13;;
60372;SDS011;46216;52.220;5.134;2023-03-02T13:00:52;16.35;;;11.90;;
60372;SDS011;46216;52.220;5.134;2023-03-02T13:03:24;16.35;;;12.40;;
60372;SDS011;46216;52.220;5.134;2023-03-02T13:05:51;18.55;;;12.05;;
60372;SDS011;46216;52.220;5.134;2023-03-02T13:08:25;15.93;;;11.50;;
60372;SDS011;46216;52.220;5.134;2023-03-02T13:10:59;16.95;;;12.35;;
60372;SDS011;46216;52.220;5.134;2023-03-02T13:13:37;18.73;;;12.73;;
60372;SDS011;46216;52.220;5.134;2023-03-02T13:16:22;16.30;;;11.80;;
60372;SDS011;46216;52.220;5.134;2023-03-02T13:18:50;17.15;;;12.50;;
60372;SDS011;46216;52.220;5.134;2023-03-02T13:21:20;15.55;;;11.18;;
60372;SDS011;46216;52.220;5.134;2023-03-02T13:23:53;15.15;;;11.00;;
60372;SDS011;46216;52.220;5.134;2023-03-02T13:26:22;15.48;;;11.35;;
60372;SDS011;46216;52.220;5.134;2023-03-02T13:28:59;16.23;;;11.88;;
60372;SDS011;46216;52.220;5.134;2023-03-02T13:31:26;17.63;;;11.95;;
60372;SDS011;46216;52.220;5.134;2023-03-02T13:33:52;18.05;;;11.90;;
60372;SDS011;46216;52.220;5.134;2023-03-02T13:36:38;21.10;;;12.55;;
60372;SDS011;46216;52.220;5.134;2023-03-02T13:39:05;16.38;;;11.80;;
60372;SDS011;46216;52.220;5.134;2023-03-02T13:41:50;17.35;;;11.70;;
60372;SDS011;46216;52.220;5.134;2023-03-02T13:44:21;17.92;;;12.30;;
60372;SDS011;46216;52.220;5.134;2023-03-02T13:46:51;17.23;;;12.15;;
60372;SDS011;46216;52.220;5.134;2023-03-02T13:49:29;16.42;;;11.98;;
60372;SDS011;46216;52.220;5.134;2023-03-02T13:52:00;17.08;;;12.40;;
60372;SDS011;46216;52.220;5.134;2023-03-02T13:54:46;15.50;;;11.15;;
60372;SDS011;46216;52.220;5.134;2023-03-02T13:57:16;16.00;;;11.02;;
60372;SDS011;46216;52.220;5.134;2023-03-02T13:59:45;13.80;;;11.25;;
60372;SDS011;46216;52.220;5.134;2023-03-02T14:02:45;15.25;;;11.55;;
60372;SDS011;46216;52.220;5.134;2023-03-02T14:05:05;18.15;;;13.30;;
60372;SDS011;46216;52.220;5.134;2023-03-02T14:07:30;21.33;;;14.75;;
60372;SDS011;46216;52.220;5.134;2023-03-02T14:09:55;20.02;;;14.10;;
60372;SDS011;46216;52.220;5.134;2023-03-02T14:12:25;18.15;;;13.13;;
60372;SDS011;46216;52.220;5.134;2023-03-02T14:14:52;20.30;;;13.55;;
60372;SDS011;46216;52.220;5.134;2023-03-02T14:17:22;19.27;;;12.23;;
60372;SDS011;46216;52.220;5.134;2023-03-02T14:19:49;20.80;;;14.18;;
60372;SDS011;46216;52.220;5.134;2023-03-02T14:22:20;17.50;;;12.88;;
60372;SDS011;46216;52.220;5.134;2023-03-02T14:24:47;20.25;;;13.27;;
60372;SDS011;46216;52.220;5.134;2023-03-02T14:27:13;16.80;;;12.45;;
60372;SDS011;46216;52.220;5.134;2023-03-02T14:29:40;15.95;;;11.52;;
60372;SDS011;46216;52.220;5.134;2023-03-02T14:32:08;16.27;;;12.77;;
60372;SDS011;46216;52.220;5.134;2023-03-02T14:34:35;16.90;;;12.63;;
60372;SDS011;46216;52.220;5.134;2023-03-02T14:37:01;17.08;;;12.88;;
60372;SDS011;46216;52.220;5.134;2023-03-02T14:39:50;18.00;;;12.82;;
60372;SDS011;46216;52.220;5.134;2023-03-02T14:42:20;18.50;;;15.23;;
60372;SDS011;46216;52.220;5.134;2023-03-02T14:44:47;19.33;;;14.40;;
60372;SDS011;46216;52.220;5.134;2023-03-02T14:47:14;18.55;;;14.05;;
60372;SDS011;46216;52.220;5.134;2023-03-02T14:49:42;16.70;;;13.45;;
60372;SDS011;46216;52.220;5.134;2023-03-02T14:52:16;17.23;;;13.30;;
60372;SDS011;46216;52.220;5.134;2023-03-02T14:54:57;18.38;;;14.10;;
60372;SDS011;46216;52.220;5.134;2023-03-02T14:57:25;18.35;;;13.77;;
60372;SDS011;46216;52.220;5.134;2023-03-02T14:59:53;17.42;;;13.90;;
60372;SDS011;46216;52.220;5.134;2023-03-02T15:02:20;18.45;;;14.40;;
60372;SDS011;46216;52.220;5.134;2023-03-02T15:04:48;18.23;;;13.82;;
60372;SDS011;46216;52.220;5.134;2023-03-02T15:07:16;17.85;;;13.82;;
60372;SDS011;46216;52.220;5.134;2023-03-02T15:09:44;18.00;;;14.07;;
60372;SDS011;46216;52.220;5.134;2023-03-02T15:12:10;17.40;;;14.15;;
60372;SDS011;46216;52.220;5.134;2023-03-02T15:14:36;19.33;;;14.43;;
60372;SDS011;46216;52.220;5.134;2023-03-02T15:17:02;18.73;;;14.18;;
60372;SDS011;46216;52.220;5.134;2023-03-02T15:19:28;16.60;;;13.02;;